sensor_id;sensor_type;location;lat;lon;timestamp;P1;durP1;ratioP1;P2;durP2;ratioP2
19691;SDS011;42748;50.016;19.890;2023-10-08T00:01:18;10.60;;;3.63;;
19691;SDS011;42748;50.016;19.890;2023-10-08T00:03:46;8.15;;;3.78;;
19691;SDS011;42748;50.016;19.890;2023-10-08T00:06:18;9.95;;;3.97;;
19691;SDS011;42748;50.016;19.890;2023-10-08T00:08:47;13.73;;;3.95;;
19691;SDS011;42748;50.016;19.890;2023-10-08T00:11:16;10.75;;;4.18;;
19691;SDS011;42748;50.016;19.890;2023-10-08T00:13:44;18.25;;;4.25;;
19691;SDS011;42748;50.016;19.890;2023-10-08T00:16:12;10.93;;;4.00;;
19691;SDS011;42748;50.016;19.890;2023-10-08T00:18:44;12.27;;;4.50;;
19691;SDS011;42748;50.016;19.890;2023-10-08T00:21:16;10.75;;;4.10;;
19691;SDS011;42748;50.016;19.890;2023-10-08T00:23:46;12.55;;;4.18;;
19691;SDS011;42748;50.016;19.890;2023-10-08T00:26:20;13.48;;;4.40;;
19691;SDS011;42748;50.016;19.890;2023-10-08T00:28:58;13.02;;;4.97;;
19691;SDS011;42748;50.016;19.890;2023-10-08T00:31:26;14.45;;;4.82;;
19691;SDS011;42748;50.016;19.890;2023-10-08T00:34:04;9.80;;;4.80;;
19691;SDS011;42748;50.016;19.890;2023-10-08T00:36:32;14.20;;;4.63;;
19691;SDS011;42748;50.016;19.890;2023-10-08T00:39:02;10.38;;;5.20;;
19691;SDS011;42748;50.016;19.890;2023-10-08T00:41:35;17.02;;;5.32;;
19691;SDS011;42748;50.016;19.890;2023-10-08T00:44:12;15.30;;;5.90;;
19691;SDS011;42748;50.016;19.890;2023-10-08T00:46:44;13.00;;;5.57;;
19691;SDS011;42748;50.016;19.890;2023-10-08T00:49:16;19.27;;;6.00;;
19691;SDS011;42748;50.016;19.890;2023-10-08T00:52:04;13.65;;;6.18;;
19691;SDS011;42748;50.016;19.890;2023-10-08T00:54:39;12.95;;;6.38;;
19691;SDS011;42748;50.016;19.890;2023-10-08T00:57:34;15.27;;;6.78;;
19691;SDS011;42748;50.016;19.890;2023-10-08T01:00:03;15.63;;;6.78;;
19691;SDS011;42748;50.016;19.890;2023-10-08T01:02:33;13.52;;;6.18;;
19691;SDS011;42748;50.016;19.890;2023-10-08T01:05:16;19.60;;;7.43;;
19691;SDS011;42748;50.016;19.890;2023-10-08T01:07:52;15.15;;;7.63;;
19691;SDS011;42748;50.016;19.890;2023-10-08T01:10:22;13.27;;;7.00;;
19691;SDS011;42748;50.016;19.890;2023-10-08T01:12:51;17.10;;;7.60;;
19691;SDS011;42748;50.016;19.890;2023-10-08T01:15:28;11.95;;;7.72;;
19691;SDS011;42748;50.016;19.890;2023-10-08T01:17:57;13.95;;;7.40;;
19691;SDS011;42748;50.016;19.890;2023-10-08T01:20:27;14.80;;;8.05;;
19691;SDS011;42748;50.016;19.890;2023-10-08T01:23:02;11.15;;;6.60;;
19691;SDS011;42748;50.016;19.890;2023-10-08T01:25:31;11.75;;;6.35;;
19691;SDS011;42748;50.016;19.890;2023-10-08T01:27:59;9.90;;;5.95;;
19691;SDS011;42748;50.016;19.890;2023-10-08T01:30:36;8.68;;;4.85;;
19691;SDS011;42748;50.016;19.890;2023-10-08T01:33:09;8.15;;;4.90;;
19691;SDS011;42748;50.016;19.890;2023-10-08T01:35:41;7.35;;;4.90;;
19691;SDS011;42748;50.016;19.890;2023-10-08T01:38:10;10.55;;;5.15;;
19691;SDS011;42748;50.016;19.890;2023-10-08T01:40:41;8.32;;;5.00;;
19691;SDS011;42748;50.016;19.890;2023-10-08T01:43:09;7.00;;;4.95;;
19691;SDS011;42748;50.016;19.890;2023-10-08T01:45:40;7.10;;;3.83;;
19691;SDS011;42748;50.016;19.890;2023-10-08T01:48:10;3.85;;;1.85;;
19691;SDS011;42748;50.016;19.890;2023-10-08T01:50:38;1.02;;;0.68;;
19691;SDS011;42748;50.016;19.890;2023-10-08T01:53:06;0.90;;;0.70;;
19691;SDS011;42748;50.016;19.890;2023-10-08T01:55:37;1.40;;;0.90;;
19691;SDS011;42748;50.016;19.890;2023-10-08T01:58:18;1.48;;;0.50;;
19691;SDS011;42748;50.016;19.890;2023-10-08T02:00:49;1.08;;;0.60;;
19691;SDS011;42748;50.016;19.890;2023-10-08T02:03:19;1.00;;;0.70;;
19691;SDS011;42748;50.016;19.890;2023-10-08T02:05:50;0.65;;;0.55;;
19691;SDS011;42748;50.016;19.890;2023-10-08T02:08:20;2.45;;;0.52;;
19691;SDS011;42748;50.016;19.890;2023-10-08T02:10:48;1.02;;;0.50;;
19691;SDS011;42748;50.016;19.890;2023-10-08T02:13:15;0.65;;;0.50;;
19691;SDS011;42748;50.016;19.890;2023-10-08T02:15:44;0.70;;;0.60;;
19691;SDS011;42748;50.016;19.890;2023-10-08T02:18:12;0.50;;;0.40;;
19691;SDS011;42748;50.016;19.890;2023-10-08T02:20:40;0.50;;;0.40;;
19691;SDS011;42748;50.016;19.890;2023-10-08T02:23:08;0.40;;;0.30;;
19691;SDS011;42748;50.016;19.890;2023-10-08T02:25:38;0.30;;;0.30;;
19691;SDS011;42748;50.016;19.890;2023-10-08T02:28:10;0.28;;;0.25;;
19691;SDS011;42748;50.016;19.890;2023-10-08T02:30:43;0.57;;;0.30;;
19691;SDS011;42748;50.016;19.890;2023-10-08T02:33:10;0.77;;;0.30;;
19691;SDS011;42748;50.016;19.890;2023-10-08T02:35:43;0.73;;;0.40;;
19691;SDS011;42748;50.016;19.890;2023-10-08T02:38:14;0.50;;;0.47;;
19691;SDS011;42748;50.016;19.890;2023-10-08T02:40:48;0.40;;;0.38;;
19691;SDS011;42748;50.016;19.890;2023-10-08T02:43:17;0.70;;;0.60;;
19691;SDS011;42748;50.016;19.890;2023-10-08T02:45:47;1.75;;;0.50;;
19691;SDS011;42748;50.016;19.890;2023-10-08T02:48:17;0.55;;;0.50;;
19691;SDS011;42748;50.016;19.890;2023-10-08T02:50:47;1.25;;;0.65;;
19691;SDS011;42748;50.016;19.890;2023-10-08T02:53:15;1.63;;;0.50;;
19691;SDS011;42748;50.016;19.890;2023-10-08T02:55:47;0.60;;;0.55;;
19691;SDS011;42748;50.016;19.890;2023-10-08T02:58:16;0.73;;;0.60;;
19691;SDS011;42748;50.016;19.890;2023-10-08T03:00:47;1.05;;;0.63;;
19691;SDS011;42748;50.016;19.890;2023-10-08T03:03:15;1.00;;;0.65;;
19691;SDS011;42748;50.016;19.890;2023-10-08T03:05:49;1.15;;;0.90;;
19691;SDS011;42748;50.016;19.890;2023-10-08T03:08:18;1.20;;;0.85;;
19691;SDS011;42748;50.016;19.890;2023-10-08T03:10:51;1.45;;;0.80;;
19691;SDS011;42748;50.016;19.890;2023-10-08T03:13:30;2.20;;;0.75;;
19691;SDS011;42748;50.016;19.890;2023-10-08T03:15:58;2.55;;;0.90;;
19691;SDS011;42748;50.016;19.890;2023-10-08T03:18:29;2.78;;;1.00;;
19691;SDS011;42748;50.016;19.890;2023-10-08T03:21:17;2.53;;;0.70;;
19691;SDS011;42748;50.016;19.890;2023-10-08T03:23:51;1.38;;;0.95;;
19691;SDS011;42748;50.016;19.890;2023-10-08T03:26:20;1.92;;;1.00;;
19691;SDS011;42748;50.016;19.890;2023-10-08T03:29:01;2.80;;;1.30;;
19691;SDS011;42748;50.016;19.890;2023-10-08T03:31:33;2.20;;;1.20;;
19691;SDS011;42748;50.016;19.890;2023-10-08T03:34:17;1.25;;;0.82;;
19691;SDS011;42748;50.016;19.890;2023-10-08T03:37:00;2.28;;;1.10;;
19691;SDS011;42748;50.016;19.890;2023-10-08T03:39:38;3.17;;;1.20;;
19691;SDS011;42748;50.016;19.890;2023-10-08T03:42:24;3.63;;;1.13;;
19691;SDS011;42748;50.016;19.890;2023-10-08T03:44:52;1.33;;;0.95;;
19691;SDS011;42748;50.016;19.890;2023-10-08T03:47:23;2.65;;;1.30;;
19691;SDS011;42748;50.016;19.890;2023-10-08T03:49:53;4.25;;;1.17;;
19691;SDS011;42748;50.016;19.890;2023-10-08T03:52:21;4.30;;;1.10;;
19691;SDS011;42748;50.016;19.890;2023-10-08T03:54:51;2.90;;;1.13;;
19691;SDS011;42748;50.016;19.890;2023-10-08T03:57:42;1.90;;;0.77;;
19691;SDS011;42748;50.016;19.890;2023-10-08T04:00:11;3.38;;;1.10;;
19691;SDS011;42748;50.016;19.890;2023-10-08T04:02:55;4.22;;;1.00;;
19691;SDS011;42748;50.016;19.890;2023-10-08T04:05:27;2.17;;;1.00;;
19691;SDS011;42748;50.016;19.890;2023-10-08T04:08:00;2.20;;;1.15;;
19691;SDS011;42748;50.016;19.890;2023-10-08T04:10:53;3.00;;;1.10;;
19691;SDS011;42748;50.016;19.890;2023-10-08T04:13:55;2.50;;;1.10;;
19691;SDS011;42748;50.016;19.890;2023-10-08T04:16:26;3.20;;;1.20;;
19691;SDS011;42748;50.016;19.890;2023-10-08T04:18:55;2.13;;;1.20;;
19691;SDS011;42748;50.016;19.890;2023-10-08T04:21:22;1.85;;;1.10;;
19691;SDS011;42748;50.016;19.890;2023-10-08T04:23:54;3.13;;;1.00;;
19691;SDS011;42748;50.016;19.890;2023-10-08T04:26:24;1.67;;;0.60;;
19691;SDS011;42748;50.016;19.890;2023-10-08T04:28:52;2.95;;;0.80;;
19691;SDS011;42748;50.016;19.890;2023-10-08T04:31:24;2.35;;;0.80;;
19691;SDS011;42748;50.016;19.890;2023-10-08T04:33:55;2.83;;;0.98;;
19691;SDS011;42748;50.016;19.890;2023-10-08T04:36:27;2.47;;;0.77;;
19691;SDS011;42748;50.016;19.890;2023-10-08T04:38:55;2.05;;;1.05;;
19691;SDS011;42748;50.016;19.890;2023-10-08T04:41:28;2.42;;;1.05;;
19691;SDS011;42748;50.016;19.890;2023-10-08T04:43:57;3.30;;;0.80;;
19691;SDS011;42748;50.016;19.890;2023-10-08T04:46:29;2.70;;;0.75;;
19691;SDS011;42748;50.016;19.890;2023-10-08T04:49:14;4.32;;;0.70;;
19691;SDS011;42748;50.016;19.890;2023-10-08T04:51:48;4.28;;;1.60;;
19691;SDS011;42748;50.016;19.890;2023-10-08T04:54:15;8.55;;;3.83;;
19691;SDS011;42748;50.016;19.890;2023-10-08T04:56:43;4.50;;;1.80;;
19691;SDS011;42748;50.016;19.890;2023-10-08T04:59:12;7.82;;;2.33;;
19691;SDS011;42748;50.016;19.890;2023-10-08T05:01:39;7.18;;;1.77;;
19691;SDS011;42748;50.016;19.890;2023-10-08T05:04:27;6.10;;;0.80;;
19691;SDS011;42748;50.016;19.890;2023-10-08T05:06:59;2.88;;;0.90;;
19691;SDS011;42748;50.016;19.890;2023-10-08T05:09:45;6.60;;;1.30;;
19691;SDS011;42748;50.016;19.890;2023-10-08T05:12:37;5.65;;;1.15;;
19691;SDS011;42748;50.016;19.890;2023-10-08T05:15:13;5.82;;;1.25;;
19691;SDS011;42748;50.016;19.890;2023-10-08T05:17:42;5.15;;;1.10;;
19691;SDS011;42748;50.016;19.890;2023-10-08T05:20:23;4.47;;;1.02;;
19691;SDS011;42748;50.016;19.890;2023-10-08T05:23:10;4.50;;;1.30;;
19691;SDS011;42748;50.016;19.890;2023-10-08T05:26:07;5.63;;;1.10;;
19691;SDS011;42748;50.016;19.890;2023-10-08T05:28:36;5.93;;;1.40;;
19691;SDS011;42748;50.016;19.890;2023-10-08T05:31:34;4.75;;;1.45;;
19691;SDS011;42748;50.016;19.890;2023-10-08T05:34:20;4.32;;;1.15;;
19691;SDS011;42748;50.016;19.890;2023-10-08T05:36:59;7.32;;;1.83;;
19691;SDS011;42748;50.016;19.890;2023-10-08T05:39:27;6.57;;;1.80;;
19691;SDS011;42748;50.016;19.890;2023-10-08T05:42:13;8.95;;;1.80;;
19691;SDS011;42748;50.016;19.890;2023-10-08T05:44:58;6.25;;;1.95;;
19691;SDS011;42748;50.016;19.890;2023-10-08T05:47:54;8.73;;;1.88;;
19691;SDS011;42748;50.016;19.890;2023-10-08T05:50:40;7.95;;;2.03;;
19691;SDS011;42748;50.016;19.890;2023-10-08T05:53:22;10.77;;;2.03;;
19691;SDS011;42748;50.016;19.890;2023-10-08T05:56:10;9.60;;;1.80;;
19691;SDS011;42748;50.016;19.890;2023-10-08T05:58:55;6.43;;;1.70;;
19691;SDS011;42748;50.016;19.890;2023-10-08T06:01:45;7.10;;;1.95;;
19691;SDS011;42748;50.016;19.890;2023-10-08T06:04:13;9.23;;;2.00;;
19691;SDS011;42748;50.016;19.890;2023-10-08T06:06:59;5.55;;;1.80;;
19691;SDS011;42748;50.016;19.890;2023-10-08T06:09:43;10.43;;;2.40;;
19691;SDS011;42748;50.016;19.890;2023-10-08T06:12:28;6.43;;;2.05;;
19691;SDS011;42748;50.016;19.890;2023-10-08T06:14:57;6.20;;;1.85;;
19691;SDS011;42748;50.016;19.890;2023-10-08T06:17:34;7.25;;;2.13;;
19691;SDS011;42748;50.016;19.890;2023-10-08T06:20:24;5.57;;;1.83;;
19691;SDS011;42748;50.016;19.890;2023-10-08T06:22:54;8.43;;;1.70;;
19691;SDS011;42748;50.016;19.890;2023-10-08T06:25:27;8.63;;;1.88;;
19691;SDS011;42748;50.016;19.890;2023-10-08T06:27:57;10.63;;;2.60;;
19691;SDS011;42748;50.016;19.890;2023-10-08T06:30:25;7.55;;;1.63;;
19691;SDS011;42748;50.016;19.890;2023-10-08T06:32:56;14.68;;;1.90;;
19691;SDS011;42748;50.016;19.890;2023-10-08T06:35:24;5.88;;;1.70;;
19691;SDS011;42748;50.016;19.890;2023-10-08T06:37:53;4.30;;;1.67;;
19691;SDS011;42748;50.016;19.890;2023-10-08T06:40:21;4.93;;;1.50;;
19691;SDS011;42748;50.016;19.890;2023-10-08T06:43:19;10.27;;;1.90;;
19691;SDS011;42748;50.016;19.890;2023-10-08T06:45:51;7.03;;;2.10;;
19691;SDS011;42748;50.016;19.890;2023-10-08T06:48:22;4.63;;;1.90;;
19691;SDS011;42748;50.016;19.890;2023-10-08T06:50:51;8.35;;;2.40;;
19691;SDS011;42748;50.016;19.890;2023-10-08T06:53:24;6.22;;;1.90;;
19691;SDS011;42748;50.016;19.890;2023-10-08T06:55:52;6.38;;;2.03;;
19691;SDS011;42748;50.016;19.890;2023-10-08T06:58:23;8.38;;;2.50;;
19691;SDS011;42748;50.016;19.890;2023-10-08T07:00:52;7.47;;;2.17;;
19691;SDS011;42748;50.016;19.890;2023-10-08T07:03:21;9.80;;;2.40;;
19691;SDS011;42748;50.016;19.890;2023-10-08T07:05:51;7.30;;;2.25;;
19691;SDS011;42748;50.016;19.890;2023-10-08T07:08:28;6.68;;;2.40;;
19691;SDS011;42748;50.016;19.890;2023-10-08T07:10:59;10.57;;;2.78;;
19691;SDS011;42748;50.016;19.890;2023-10-08T07:13:38;9.07;;;2.80;;
19691;SDS011;42748;50.016;19.890;2023-10-08T07:16:08;8.40;;;2.63;;
19691;SDS011;42748;50.016;19.890;2023-10-08T07:18:40;11.48;;;3.22;;
19691;SDS011;42748;50.016;19.890;2023-10-08T07:21:18;6.40;;;2.67;;
19691;SDS011;42748;50.016;19.890;2023-10-08T07:23:50;13.70;;;3.60;;
19691;SDS011;42748;50.016;19.890;2023-10-08T07:26:41;9.65;;;4.00;;
19691;SDS011;42748;50.016;19.890;2023-10-08T07:29:16;11.20;;;3.70;;
19691;SDS011;42748;50.016;19.890;2023-10-08T07:31:45;10.90;;;3.83;;
19691;SDS011;42748;50.016;19.890;2023-10-08T07:34:16;9.85;;;3.83;;
19691;SDS011;42748;50.016;19.890;2023-10-08T07:36:53;9.40;;;3.72;;
19691;SDS011;42748;50.016;19.890;2023-10-08T07:39:22;11.40;;;3.70;;
19691;SDS011;42748;50.016;19.890;2023-10-08T07:42:00;11.93;;;3.78;;
19691;SDS011;42748;50.016;19.890;2023-10-08T07:44:28;7.80;;;3.45;;
19691;SDS011;42748;50.016;19.890;2023-10-08T07:47:00;9.52;;;3.70;;
19691;SDS011;42748;50.016;19.890;2023-10-08T07:49:28;9.43;;;3.67;;
19691;SDS011;42748;50.016;19.890;2023-10-08T07:51:57;12.23;;;4.07;;
19691;SDS011;42748;50.016;19.890;2023-10-08T07:54:26;10.38;;;4.43;;
19691;SDS011;42748;50.016;19.890;2023-10-08T07:57:01;11.30;;;4.18;;
19691;SDS011;42748;50.016;19.890;2023-10-08T07:59:40;8.30;;;3.17;;
19691;SDS011;42748;50.016;19.890;2023-10-08T08:02:15;6.80;;;2.60;;
19691;SDS011;42748;50.016;19.890;2023-10-08T08:04:50;9.77;;;2.85;;
19691;SDS011;42748;50.016;19.890;2023-10-08T08:07:20;5.80;;;2.47;;
19691;SDS011;42748;50.016;19.890;2023-10-08T08:09:52;4.90;;;2.65;;
19691;SDS011;42748;50.016;19.890;2023-10-08T08:12:29;6.80;;;2.80;;
19691;SDS011;42748;50.016;19.890;2023-10-08T08:15:00;5.47;;;2.72;;
19691;SDS011;42748;50.016;19.890;2023-10-08T08:17:30;7.50;;;3.47;;
19691;SDS011;42748;50.016;19.890;2023-10-08T08:20:00;6.47;;;3.00;;
19691;SDS011;42748;50.016;19.890;2023-10-08T08:22:44;4.82;;;2.88;;
19691;SDS011;42748;50.016;19.890;2023-10-08T08:25:22;7.88;;;3.15;;
19691;SDS011;42748;50.016;19.890;2023-10-08T08:28:09;6.07;;;3.10;;
19691;SDS011;42748;50.016;19.890;2023-10-08T08:30:44;5.88;;;2.80;;
19691;SDS011;42748;50.016;19.890;2023-10-08T08:33:19;8.35;;;3.30;;
19691;SDS011;42748;50.016;19.890;2023-10-08T08:35:57;8.93;;;3.58;;
19691;SDS011;42748;50.016;19.890;2023-10-08T08:38:26;8.35;;;3.53;;
19691;SDS011;42748;50.016;19.890;2023-10-08T08:41:03;7.07;;;3.00;;
19691;SDS011;42748;50.016;19.890;2023-10-08T08:43:34;6.30;;;2.80;;
19691;SDS011;42748;50.016;19.890;2023-10-08T08:46:03;7.25;;;3.05;;
19691;SDS011;42748;50.016;19.890;2023-10-08T08:48:37;7.13;;;3.03;;
19691;SDS011;42748;50.016;19.890;2023-10-08T08:51:07;7.78;;;3.42;;
19691;SDS011;42748;50.016;19.890;2023-10-08T08:53:36;6.70;;;2.80;;
19691;SDS011;42748;50.016;19.890;2023-10-08T08:56:09;5.78;;;2.58;;
19691;SDS011;42748;50.016;19.890;2023-10-08T08:58:37;6.32;;;2.58;;
19691;SDS011;42748;50.016;19.890;2023-10-08T09:01:06;5.38;;;2.38;;
19691;SDS011;42748;50.016;19.890;2023-10-08T09:03:39;5.50;;;2.80;;
19691;SDS011;42748;50.016;19.890;2023-10-08T09:06:08;4.18;;;1.90;;
19691;SDS011;42748;50.016;19.890;2023-10-08T09:08:38;4.00;;;1.80;;
19691;SDS011;42748;50.016;19.890;2023-10-08T09:11:16;3.10;;;1.70;;
19691;SDS011;42748;50.016;19.890;2023-10-08T09:13:45;4.63;;;1.73;;
19691;SDS011;42748;50.016;19.890;2023-10-08T09:16:14;3.97;;;1.52;;
19691;SDS011;42748;50.016;19.890;2023-10-08T09:18:42;4.55;;;2.03;;
19691;SDS011;42748;50.016;19.890;2023-10-08T09:21:15;4.15;;;1.80;;
19691;SDS011;42748;50.016;19.890;2023-10-08T09:23:50;3.30;;;1.80;;
19691;SDS011;42748;50.016;19.890;2023-10-08T09:26:17;6.40;;;1.98;;
19691;SDS011;42748;50.016;19.890;2023-10-08T09:28:47;3.83;;;1.70;;
19691;SDS011;42748;50.016;19.890;2023-10-08T09:31:15;3.38;;;1.63;;
19691;SDS011;42748;50.016;19.890;2023-10-08T09:33:55;4.32;;;1.60;;
19691;SDS011;42748;50.016;19.890;2023-10-08T09:36:26;5.10;;;2.03;;
19691;SDS011;42748;50.016;19.890;2023-10-08T09:39:02;6.00;;;2.00;;
19691;SDS011;42748;50.016;19.890;2023-10-08T09:41:32;2.50;;;1.60;;
19691;SDS011;42748;50.016;19.890;2023-10-08T09:44:01;4.63;;;1.83;;
19691;SDS011;42748;50.016;19.890;2023-10-08T09:46:31;4.07;;;1.73;;
19691;SDS011;42748;50.016;19.890;2023-10-08T09:49:05;5.00;;;1.70;;
19691;SDS011;42748;50.016;19.890;2023-10-08T09:51:35;4.60;;;1.60;;
19691;SDS011;42748;50.016;19.890;2023-10-08T09:54:12;3.55;;;1.63;;
19691;SDS011;42748;50.016;19.890;2023-10-08T09:56:43;4.00;;;1.50;;
19691;SDS011;42748;50.016;19.890;2023-10-08T09:59:12;3.20;;;1.60;;
19691;SDS011;42748;50.016;19.890;2023-10-08T10:01:42;2.47;;;1.50;;
19691;SDS011;42748;50.016;19.890;2023-10-08T10:04:11;3.80;;;1.52;;
19691;SDS011;42748;50.016;19.890;2023-10-08T10:06:41;3.72;;;1.70;;
19691;SDS011;42748;50.016;19.890;2023-10-08T10:09:15;3.45;;;1.77;;
19691;SDS011;42748;50.016;19.890;2023-10-08T10:11:49;3.30;;;1.55;;
19691;SDS011;42748;50.016;19.890;2023-10-08T10:14:17;5.03;;;1.52;;
19691;SDS011;42748;50.016;19.890;2023-10-08T10:19:31;2.70;;;1.60;;
19691;SDS011;42748;50.016;19.890;2023-10-08T10:21:59;3.63;;;1.45;;
19691;SDS011;42748;50.016;19.890;2023-10-08T10:24:33;4.57;;;1.70;;
19691;SDS011;42748;50.016;19.890;2023-10-08T10:27:13;2.30;;;1.58;;
19691;SDS011;42748;50.016;19.890;2023-10-08T10:29:42;2.22;;;1.48;;
19691;SDS011;42748;50.016;19.890;2023-10-08T10:32:10;3.90;;;1.70;;
19691;SDS011;42748;50.016;19.890;2023-10-08T10:34:42;3.83;;;1.67;;
19691;SDS011;42748;50.016;19.890;2023-10-08T10:37:11;5.05;;;1.80;;
19691;SDS011;42748;50.016;19.890;2023-10-08T10:39:53;3.92;;;1.90;;
19691;SDS011;42748;50.016;19.890;2023-10-08T10:42:22;6.15;;;1.83;;
19691;SDS011;42748;50.016;19.890;2023-10-08T10:44:50;5.03;;;1.77;;
19691;SDS011;42748;50.016;19.890;2023-10-08T10:47:19;4.80;;;1.88;;
19691;SDS011;42748;50.016;19.890;2023-10-08T10:49:50;4.22;;;1.88;;
19691;SDS011;42748;50.016;19.890;2023-10-08T10:52:24;2.35;;;1.40;;
19691;SDS011;42748;50.016;19.890;2023-10-08T10:55:03;3.92;;;1.67;;
19691;SDS011;42748;50.016;19.890;2023-10-08T10:57:44;3.72;;;1.70;;
19691;SDS011;42748;50.016;19.890;2023-10-08T11:00:24;3.65;;;1.50;;
19691;SDS011;42748;50.016;19.890;2023-10-08T11:03:02;4.50;;;1.30;;
19691;SDS011;42748;50.016;19.890;2023-10-08T11:05:32;2.55;;;1.20;;
19691;SDS011;42748;50.016;19.890;2023-10-08T11:08:05;3.38;;;1.20;;
19691;SDS011;42748;50.016;19.890;2023-10-08T11:10:34;3.03;;;1.20;;
19691;SDS011;42748;50.016;19.890;2023-10-08T11:13:07;3.67;;;1.60;;
19691;SDS011;42748;50.016;19.890;2023-10-08T11:15:42;2.10;;;1.30;;
19691;SDS011;42748;50.016;19.890;2023-10-08T11:18:10;2.92;;;1.40;;
19691;SDS011;42748;50.016;19.890;2023-10-08T11:20:42;4.47;;;1.55;;
19691;SDS011;42748;50.016;19.890;2023-10-08T11:23:32;4.55;;;1.40;;
19691;SDS011;42748;50.016;19.890;2023-10-08T11:26:01;3.08;;;1.30;;
19691;SDS011;42748;50.016;19.890;2023-10-08T11:28:32;3.25;;;1.52;;
19691;SDS011;42748;50.016;19.890;2023-10-08T11:31:01;4.30;;;1.42;;
19691;SDS011;42748;50.016;19.890;2023-10-08T11:33:35;3.42;;;1.30;;
19691;SDS011;42748;50.016;19.890;2023-10-08T11:36:04;2.45;;;1.23;;
19691;SDS011;42748;50.016;19.890;2023-10-08T11:38:37;3.75;;;1.42;;
19691;SDS011;42748;50.016;19.890;2023-10-08T11:41:12;3.45;;;1.52;;
19691;SDS011;42748;50.016;19.890;2023-10-08T11:43:52;4.05;;;1.67;;
19691;SDS011;42748;50.016;19.890;2023-10-08T11:46:30;3.75;;;1.63;;
19691;SDS011;42748;50.016;19.890;2023-10-08T11:49:05;2.35;;;1.40;;
19691;SDS011;42748;50.016;19.890;2023-10-08T11:51:34;4.85;;;1.33;;
19691;SDS011;42748;50.016;19.890;2023-10-08T11:54:02;4.38;;;1.40;;
19691;SDS011;42748;50.016;19.890;2023-10-08T11:56:32;7.38;;;1.40;;
19691;SDS011;42748;50.016;19.890;2023-10-08T11:59:03;2.53;;;1.10;;
19691;SDS011;42748;50.016;19.890;2023-10-08T12:01:38;2.78;;;1.30;;
19691;SDS011;42748;50.016;19.890;2023-10-08T12:04:09;2.88;;;1.25;;
19691;SDS011;42748;50.016;19.890;2023-10-08T12:06:43;2.97;;;1.10;;
19691;SDS011;42748;50.016;19.890;2023-10-08T12:09:14;3.42;;;1.40;;
19691;SDS011;42748;50.016;19.890;2023-10-08T12:11:42;1.95;;;1.02;;
19691;SDS011;42748;50.016;19.890;2023-10-08T12:14:10;2.85;;;1.35;;
19691;SDS011;42748;50.016;19.890;2023-10-08T12:16:39;2.40;;;1.20;;
19691;SDS011;42748;50.016;19.890;2023-10-08T12:19:08;2.80;;;1.30;;
19691;SDS011;42748;50.016;19.890;2023-10-08T12:21:43;2.58;;;1.20;;
19691;SDS011;42748;50.016;19.890;2023-10-08T12:24:14;4.28;;;1.40;;
19691;SDS011;42748;50.016;19.890;2023-10-08T12:26:43;4.10;;;1.13;;
19691;SDS011;42748;50.016;19.890;2023-10-08T12:29:14;3.45;;;1.25;;
19691;SDS011;42748;50.016;19.890;2023-10-08T12:31:44;3.67;;;1.30;;
19691;SDS011;42748;50.016;19.890;2023-10-08T12:34:14;3.33;;;1.25;;
19691;SDS011;42748;50.016;19.890;2023-10-08T12:36:43;2.03;;;0.90;;
19691;SDS011;42748;50.016;19.890;2023-10-08T12:39:12;2.70;;;1.13;;
19691;SDS011;42748;50.016;19.890;2023-10-08T12:41:43;2.30;;;1.20;;
19691;SDS011;42748;50.016;19.890;2023-10-08T12:44:12;1.52;;;1.00;;
19691;SDS011;42748;50.016;19.890;2023-10-08T12:46:42;4.10;;;1.20;;
19691;SDS011;42748;50.016;19.890;2023-10-08T12:49:11;4.00;;;1.30;;
19691;SDS011;42748;50.016;19.890;2023-10-08T12:51:38;2.25;;;0.90;;
19691;SDS011;42748;50.016;19.890;2023-10-08T12:54:08;3.65;;;1.20;;
19691;SDS011;42748;50.016;19.890;2023-10-08T12:56:48;3.92;;;1.25;;
19691;SDS011;42748;50.016;19.890;2023-10-08T12:59:16;2.90;;;1.02;;
19691;SDS011;42748;50.016;19.890;2023-10-08T13:01:51;2.33;;;1.17;;
19691;SDS011;42748;50.016;19.890;2023-10-08T13:04:22;2.42;;;1.20;;
19691;SDS011;42748;50.016;19.890;2023-10-08T13:07:01;2.17;;;1.00;;
19691;SDS011;42748;50.016;19.890;2023-10-08T13:09:30;2.15;;;1.00;;
19691;SDS011;42748;50.016;19.890;2023-10-08T13:11:58;3.55;;;1.00;;
19691;SDS011;42748;50.016;19.890;2023-10-08T13:14:29;3.50;;;1.08;;
19691;SDS011;42748;50.016;19.890;2023-10-08T13:16:56;2.75;;;1.02;;
19691;SDS011;42748;50.016;19.890;2023-10-08T13:19:24;3.60;;;1.27;;
19691;SDS011;42748;50.016;19.890;2023-10-08T13:21:53;2.60;;;1.20;;
19691;SDS011;42748;50.016;19.890;2023-10-08T13:24:21;2.55;;;1.00;;
19691;SDS011;42748;50.016;19.890;2023-10-08T13:26:51;2.35;;;1.00;;
19691;SDS011;42748;50.016;19.890;2023-10-08T13:29:19;2.22;;;1.10;;
19691;SDS011;42748;50.016;19.890;2023-10-08T13:31:47;5.30;;;1.23;;
19691;SDS011;42748;50.016;19.890;2023-10-08T13:34:15;2.10;;;1.02;;
19691;SDS011;42748;50.016;19.890;2023-10-08T13:36:43;2.45;;;1.08;;
19691;SDS011;42748;50.016;19.890;2023-10-08T13:39:14;4.60;;;1.20;;
19691;SDS011;42748;50.016;19.890;2023-10-08T13:41:46;3.10;;;0.93;;
19691;SDS011;42748;50.016;19.890;2023-10-08T13:44:19;3.58;;;1.30;;
19691;SDS011;42748;50.016;19.890;2023-10-08T13:46:59;2.88;;;0.90;;
19691;SDS011;42748;50.016;19.890;2023-10-08T13:49:32;2.38;;;1.17;;
19691;SDS011;42748;50.016;19.890;2023-10-08T13:52:00;3.30;;;0.98;;
19691;SDS011;42748;50.016;19.890;2023-10-08T13:54:29;4.53;;;1.23;;
19691;SDS011;42748;50.016;19.890;2023-10-08T13:56:59;4.90;;;1.20;;
19691;SDS011;42748;50.016;19.890;2023-10-08T13:59:28;3.80;;;1.30;;
19691;SDS011;42748;50.016;19.890;2023-10-08T14:01:59;3.28;;;1.30;;
19691;SDS011;42748;50.016;19.890;2023-10-08T14:04:29;3.65;;;1.30;;
19691;SDS011;42748;50.016;19.890;2023-10-08T14:06:58;2.40;;;0.98;;
19691;SDS011;42748;50.016;19.890;2023-10-08T14:09:25;3.38;;;0.93;;
19691;SDS011;42748;50.016;19.890;2023-10-08T14:12:04;3.35;;;1.27;;
19691;SDS011;42748;50.016;19.890;2023-10-08T14:14:34;3.42;;;1.05;;
19691;SDS011;42748;50.016;19.890;2023-10-08T14:17:02;2.60;;;1.17;;
19691;SDS011;42748;50.016;19.890;2023-10-08T14:19:36;7.25;;;1.38;;
19691;SDS011;42748;50.016;19.890;2023-10-08T14:22:13;2.65;;;1.10;;
19691;SDS011;42748;50.016;19.890;2023-10-08T14:24:42;3.13;;;1.17;;
19691;SDS011;42748;50.016;19.890;2023-10-08T14:27:13;4.32;;;1.13;;
19691;SDS011;42748;50.016;19.890;2023-10-08T14:29:52;3.10;;;1.05;;
19691;SDS011;42748;50.016;19.890;2023-10-08T14:32:19;4.00;;;1.30;;
19691;SDS011;42748;50.016;19.890;2023-10-08T14:34:47;3.28;;;1.40;;
19691;SDS011;42748;50.016;19.890;2023-10-08T14:37:22;4.15;;;1.35;;
19691;SDS011;42748;50.016;19.890;2023-10-08T14:40:08;3.03;;;1.10;;
19691;SDS011;42748;50.016;19.890;2023-10-08T14:42:55;3.70;;;1.33;;
19691;SDS011;42748;50.016;19.890;2023-10-08T14:45:28;5.00;;;1.40;;
19691;SDS011;42748;50.016;19.890;2023-10-08T14:48:02;2.58;;;1.05;;
19691;SDS011;42748;50.016;19.890;2023-10-08T14:50:34;3.90;;;1.00;;
19691;SDS011;42748;50.016;19.890;2023-10-08T14:53:02;3.80;;;1.30;;
19691;SDS011;42748;50.016;19.890;2023-10-08T14:55:32;2.63;;;1.30;;
19691;SDS011;42748;50.016;19.890;2023-10-08T14:58:04;3.95;;;1.50;;
19691;SDS011;42748;50.016;19.890;2023-10-08T15:00:36;3.53;;;1.30;;
19691;SDS011;42748;50.016;19.890;2023-10-08T15:03:04;2.72;;;1.10;;
19691;SDS011;42748;50.016;19.890;2023-10-08T15:05:34;2.35;;;1.23;;
19691;SDS011;42748;50.016;19.890;2023-10-08T15:08:06;3.08;;;1.15;;
19691;SDS011;42748;50.016;19.890;2023-10-08T15:10:38;3.75;;;0.88;;